Time;durP1;ratioP1;P1;durP2;ratioP2;P2;SDS_P1;SDS_P2;PMS_P1;PMS_P2;Temp;Humidity;BMP_temperature;BMP_pressure;BME280_temperature;BME280_humidity;BME280_pressure;Samples;Min_cycle;Max_cycle;Signal;HPM_P1;HPM_P2
2022/05/29 00:02:41;;;;;;;2.77;2.00;;;16.70;25.90;;;;;;10511500;28;20231;-80
2022/05/29 00:07:50;;;;;;;1.57;1.47;;;16.70;26.20;;;;;;10505573;28;20234;-79
2022/05/29 00:12:53;;;;;;;2.07;1.60;;;16.70;26.60;;;;;;10516933;28;20227;-79
2022/05/29 00:17:56;;;;;;;1.63;1.43;;;16.60;26.00;;;;;;10505895;28;20230;-79
2022/05/29 00:23:01;;;;;;;1.87;1.70;;;16.70;26.10;;;;;;10505405;28;20599;-79
2022/05/29 00:28:04;;;;;;;2.03;1.80;;;16.70;26.10;;;;;;10540410;27;20215;-80
2022/05/29 00:33:08;;;;;;;2.60;1.73;;;16.60;25.80;;;;;;10550835;27;20253;-79
2022/05/29 00:38:14;;;;;;;2.03;1.67;;;16.60;25.90;;;;;;10551706;27;20227;-79
2022/05/29 00:43:17;;;;;;;2.23;2.00;;;16.50;26.30;;;;;;10552382;27;20309;-79
2022/05/29 00:48:21;;;;;;;1.70;1.60;;;16.50;26.10;;;;;;10551731;28;20239;-79
2022/05/29 00:53:27;;;;;;;2.17;1.80;;;16.50;26.20;;;;;;10506450;28;20227;-79
2022/05/29 00:58:31;;;;;;;1.60;1.50;;;16.40;26.40;;;;;;10512775;28;20626;-78
2022/05/29 01:03:34;;;;;;;1.80;1.70;;;16.40;26.20;;;;;;10511497;28;20224;-79
2022/05/29 01:08:39;;;;;;;2.20;1.33;;;16.30;26.20;;;;;;10511905;28;20656;-80
2022/05/29 01:13:54;;;;;;;2.43;1.80;;;16.30;26.60;;;;;;10515052;27;20230;-78
2022/05/29 01:19:19;;;;;;;2.43;1.63;;;16.30;27.20;;;;;;10506974;28;20303;-78
2022/05/29 01:24:49;;;;;;;1.60;1.50;;;16.30;27.30;;;;;;10511614;28;20220;-80
2022/05/29 01:30:03;;;;;;;1.67;1.57;;;16.20;27.10;;;;;;10513122;28;20227;-79
2022/05/29 01:35:13;;;;;;;2.50;1.87;;;16.20;27.20;;;;;;10517196;28;20227;-80
2022/05/29 01:40:25;;;;;;;1.97;1.73;;;16.10;27.30;;;;;;10508375;28;20234;-79
2022/05/29 01:45:53;;;;;;;2.00;1.90;;;16.00;27.40;;;;;;10514712;28;20231;-80
2022/05/29 01:51:00;;;;;;;1.73;1.63;;;15.90;27.40;;;;;;10507654;28;20229;-80
2022/05/29 01:56:09;;;;;;;2.70;1.90;;;15.70;27.10;;;;;;10502794;28;20764;-79
2022/05/29 02:01:16;;;;;;;1.70;1.60;;;15.50;27.20;;;;;;10502991;28;20229;-79
2022/05/29 02:06:24;;;;;;;2.60;1.60;;;15.40;27.30;;;;;;10501626;28;20315;-79
2022/05/29 02:11:29;;;;;;;2.27;2.03;;;15.30;27.40;;;;;;10500485;28;20691;-79
2022/05/29 02:16:41;;;;;;;2.93;2.03;;;15.30;27.20;;;;;;10503044;28;20231;-80
2022/05/29 02:21:49;;;;;;;1.70;1.50;;;15.20;27.70;;;;;;10502555;28;20303;-79
2022/05/29 02:26:57;;;;;;;1.50;1.40;;;15.20;27.50;;;;;;10506699;28;20642;-79
2022/05/29 02:32:09;;;;;;;1.90;1.80;;;15.10;27.70;;;;;;10501726;28;20604;-79
2022/05/29 02:37:19;;;;;;;4.00;1.90;;;15.10;28.00;;;;;;10496875;28;20220;-79
2022/05/29 02:42:28;;;;;;;2.13;1.60;;;15.10;28.20;;;;;;10504505;28;20232;-79
2022/05/29 02:47:40;;;;;;;2.10;1.80;;;15.10;27.90;;;;;;10499344;28;20239;-79
2022/05/29 02:52:44;;;;;;;1.70;1.60;;;15.00;28.30;;;;;;10498907;28;20224;-79
2022/05/29 02:57:49;;;;;;;2.20;2.00;;;14.90;27.50;;;;;;10503265;28;20220;-79
2022/05/29 03:03:06;;;;;;;2.00;1.80;;;14.90;27.70;;;;;;10501096;28;20235;-79
2022/05/29 03:08:34;;;;;;;2.00;1.70;;;14.80;28.40;;;;;;10500502;28;20245;-79
2022/05/29 03:13:48;;;;;;;1.63;1.50;;;14.80;28.40;;;;;;10503453;28;20238;-79
2022/05/29 03:18:59;;;;;;;1.57;1.47;;;14.80;28.50;;;;;;10502183;28;20224;-79
2022/05/29 03:24:13;;;;;;;6.40;1.70;;;14.80;28.30;;;;;;10498540;28;20236;-78
2022/05/29 03:29:24;;;;;;;1.83;1.67;;;14.80;28.30;;;;;;10504219;28;20231;-79
2022/05/29 03:34:28;;;;;;;1.50;1.40;;;14.80;28.10;;;;;;10502741;28;20227;-79
2022/05/29 03:39:31;;;;;;;1.97;1.73;;;14.80;27.90;;;;;;10497527;28;20229;-79
2022/05/29 03:44:34;;;;;;;1.47;1.37;;;14.80;27.80;;;;;;10500108;28;20746;-79
2022/05/29 03:49:40;;;;;;;1.80;1.60;;;14.80;27.80;;;;;;10498654;28;20739;-78
2022/05/29 03:54:43;;;;;;;1.53;1.43;;;14.70;27.90;;;;;;10504163;28;20227;-79
2022/05/29 03:59:46;;;;;;;1.40;1.30;;;14.70;27.60;;;;;;10496497;28;20255;-79
2022/05/29 04:04:51;;;;;;;1.80;1.30;;;14.60;27.60;;;;;;10501017;28;20224;-80
2022/05/29 04:15:15;;;;;;;1.80;1.30;;;14.40;27.80;;;;;;10498958;28;20230;-80
2022/05/29 04:20:21;;;;;;;1.50;1.40;;;14.40;27.80;;;;;;10502133;28;20755;-79
2022/05/29 04:25:24;;;;;;;1.67;1.57;;;14.30;28.20;;;;;;10494749;28;20228;-79
2022/05/29 04:30:27;;;;;;;1.97;1.60;;;14.40;28.10;;;;;;10498679;28;20234;-79
2022/05/29 04:35:37;;;;;;;1.40;1.30;;;14.30;28.10;;;;;;10501916;28;20251;-79
2022/05/29 04:40:42;;;;;;;2.07;1.47;;;14.30;28.70;;;;;;10508685;28;20220;-79
2022/05/29 04:45:47;;;;;;;1.40;1.30;;;14.20;28.20;;;;;;10505373;28;20583;-79
2022/05/29 04:50:56;;;;;;;1.60;1.33;;;14.20;28.10;;;;;;10506557;28;20228;-79
2022/05/29 04:56:00;;;;;;;1.80;1.30;;;14.20;28.70;;;;;;10505907;28;20216;-79
2022/05/29 05:01:05;;;;;;;2.10;1.20;;;14.30;28.50;;;;;;10552703;28;20226;-79
2022/05/29 05:06:10;;;;;;;1.23;1.13;;;14.40;28.70;;;;;;10546142;27;20247;-79
2022/05/29 05:11:13;;;;;;;1.50;1.20;;;14.40;28.70;;;;;;10547661;28;20570;-78
2022/05/29 05:16:17;;;;;;;3.40;1.20;;;14.50;28.50;;;;;;10548796;27;20229;-78
2022/05/29 05:21:22;;;;;;;1.67;1.40;;;14.50;28.60;;;;;;10544915;27;20582;-79
2022/05/29 05:26:25;;;;;;;1.83;1.30;;;14.60;28.90;;;;;;10548923;28;20799;-79
2022/05/29 05:31:29;;;;;;;1.50;1.30;;;14.60;28.60;;;;;;10546770;27;20227;-79
2022/05/29 05:36:33;;;;;;;2.07;1.30;;;14.70;28.70;;;;;;10548323;27;20223;-79
2022/05/29 05:41:37;;;;;;;1.60;1.40;;;14.70;28.90;;;;;;10543233;28;20224;-79
2022/05/29 05:46:45;;;;;;;1.90;1.30;;;14.70;28.50;;;;;;10545819;28;20227;-80
2022/05/29 05:51:51;;;;;;;2.13;1.43;;;14.70;29.20;;;;;;10545203;28;20254;-79
2022/05/29 05:56:54;;;;;;;3.60;1.50;;;14.70;28.90;;;;;;10546241;28;20238;-79
2022/05/29 06:01:58;;;;;;;3.20;1.70;;;14.70;28.70;;;;;;10538052;28;20229;-79
2022/05/29 06:07:03;;;;;;;2.27;1.50;;;14.70;28.70;;;;;;10545661;28;20227;-79
2022/05/29 06:12:07;;;;;;;2.97;1.40;;;14.70;28.90;;;;;;10547370;27;20222;-79
2022/05/29 06:17:10;;;;;;;1.50;1.10;;;14.80;29.00;;;;;;10546471;27;20306;-79
2022/05/29 06:22:15;;;;;;;1.73;1.23;;;14.80;28.90;;;;;;10535910;28;20224;-79
2022/05/29 06:27:18;;;;;;;1.43;1.10;;;14.90;29.10;;;;;;10503220;28;20227;-79
2022/05/29 06:32:22;;;;;;;1.83;1.40;;;14.90;29.00;;;;;;10505480;28;20591;-79
2022/05/29 06:37:26;;;;;;;1.40;1.30;;;15.00;29.00;;;;;;10502390;28;20255;-79
2022/05/29 06:42:33;;;;;;;1.87;1.20;;;15.00;29.00;;;;;;10503557;28;20228;-79
2022/05/29 06:47:39;;;;;;;1.53;1.20;;;15.10;28.90;;;;;;10501078;28;20227;-79
2022/05/29 06:52:43;;;;;;;1.43;1.00;;;15.20;28.90;;;;;;10504546;28;20255;-80
2022/05/29 06:57:46;;;;;;;3.37;1.30;;;15.20;29.00;;;;;;10506439;28;20227;-80
2022/05/29 07:08:12;;;;;;;2.23;1.20;;;15.50;28.90;;;;;;10502850;28;20243;-80
2022/05/29 07:13:15;;;;;;;3.13;1.40;;;15.50;28.90;;;;;;10505676;28;20703;-79
2022/05/29 07:18:18;;;;;;;2.00;1.10;;;15.60;28.80;;;;;;10497652;28;20226;-79
2022/05/29 07:23:23;;;;;;;2.20;1.10;;;15.70;28.70;;;;;;10509578;28;20243;-79
2022/05/29 07:28:26;;;;;;;2.20;1.17;;;15.70;28.80;;;;;;10502652;28;20696;-79
2022/05/29 07:33:29;;;;;;;1.77;1.20;;;15.70;28.70;;;;;;10521836;28;20229;-80
2022/05/29 07:38:34;;;;;;;2.70;1.30;;;15.80;28.70;;;;;;10545788;28;20304;-79
2022/05/29 07:43:37;;;;;;;2.03;1.30;;;15.80;28.80;;;;;;10547701;27;20227;-79
2022/05/29 07:48:40;;;;;;;1.47;1.37;;;15.80;28.60;;;;;;10549596;28;20230;-80
2022/05/29 07:53:45;;;;;;;2.87;1.40;;;15.90;28.90;;;;;;10553865;28;20227;-80
2022/05/29 07:58:48;;;;;;;2.07;1.27;;;15.90;29.10;;;;;;10553437;28;20814;-81
2022/05/29 08:03:51;;;;;;;2.27;1.30;;;15.90;29.20;;;;;;10560051;28;20242;-80
2022/05/29 08:08:56;;;;;;;2.43;1.27;;;15.80;29.10;;;;;;10556639;28;20230;-80
2022/05/29 08:14:00;;;;;;;2.70;1.20;;;15.80;29.50;;;;;;10517978;28;20620;-80
2022/05/29 08:19:03;;;;;;;1.80;1.40;;;15.70;29.20;;;;;;10552644;28;20223;-81
2022/05/29 08:35:12;;;;;;;3.87;1.70;;;15.40;29.90;;;;;;10554001;27;20695;-80
2022/05/29 08:40:16;;;;;;;2.43;1.50;;;15.40;29.70;;;;;;10554817;28;20226;-80
2022/05/29 08:45:20;;;;;;;2.57;1.30;;;15.30;30.20;;;;;;10556912;27;20237;-80
2022/05/29 08:50:33;;;;;;;1.47;1.37;;;15.40;30.20;;;;;;10559471;28;20231;-80
2022/05/29 08:55:42;;;;;;;1.27;1.03;;;15.40;30.90;;;;;;10553010;28;20235;-80
2022/05/29 09:00:58;;;;;;;2.20;1.40;;;15.40;30.70;;;;;;10553079;28;20735;-80
2022/05/29 09:06:05;;;;;;;2.13;1.33;;;15.50;31.60;;;;;;10549478;28;20230;-80
2022/05/29 09:11:16;;;;;;;2.27;1.50;;;15.50;30.90;;;;;;10548197;27;20226;-77
2022/05/29 09:16:24;;;;;;;1.33;1.23;;;15.50;30.80;;;;;;10568065;27;20270;-76
2022/05/29 09:21:38;;;;;;;2.33;1.27;;;15.50;30.80;;;;;;10553991;28;20222;-78
2022/05/29 09:26:42;;;;;;;3.63;1.57;;;15.50;31.10;;;;;;10551213;28;20587;-76
2022/05/29 09:31:46;;;;;;;2.50;1.40;;;15.50;30.70;;;;;;10540327;27;20246;-76
2022/05/29 09:36:57;;;;;;;1.83;1.53;;;15.60;30.50;;;;;;10541690;28;20375;-77
2022/05/29 09:42:06;;;;;;;1.83;1.53;;;15.60;31.40;;;;;;10538861;28;20226;-77
2022/05/29 09:52:35;;;;;;;1.47;1.30;;;15.70;30.60;;;;;;10536811;28;20216;-77
2022/05/29 09:57:43;;;;;;;1.57;1.37;;;15.80;31.00;;;;;;10539926;27;20210;-79
2022/05/29 10:02:48;;;;;;;2.40;1.50;;;15.80;31.70;;;;;;10543813;28;20223;-80
2022/05/29 10:07:55;;;;;;;2.87;1.53;;;15.90;30.90;;;;;;10542509;28;20224;-77
2022/05/29 10:13:00;;;;;;;2.00;1.40;;;15.90;31.10;;;;;;10540872;28;20230;-77
2022/05/29 10:18:12;;;;;;;2.30;1.43;;;16.10;30.90;;;;;;10507669;28;20211;-77
2022/05/29 10:23:32;;;;;;;1.70;1.50;;;16.30;30.70;;;;;;10548025;27;20219;-77
2022/05/29 10:28:42;;;;;;;2.97;1.40;;;16.40;30.00;;;;;;10549266;28;20273;-77
2022/05/29 10:34:02;;;;;;;3.13;1.70;;;16.50;30.50;;;;;;10546902;28;20227;-77
2022/05/29 10:39:10;;;;;;;3.00;1.50;;;16.70;30.10;;;;;;10551631;28;20226;-78
2022/05/29 10:44:36;;;;;;;3.77;1.57;;;16.90;29.90;;;;;;10543750;27;20231;-78
2022/05/29 10:49:43;;;;;;;1.87;1.40;;;17.10;30.00;;;;;;10552096;28;20762;-77
2022/05/29 10:55:12;;;;;;;2.50;1.40;;;17.30;29.70;;;;;;10548471;27;20250;-78
2022/05/29 11:00:25;;;;;;;2.40;2.20;;;17.50;29.30;;;;;;10511621;28;20231;-77
2022/05/29 11:05:37;;;;;;;1.50;1.23;;;17.80;29.10;;;;;;10538310;28;20731;-77
2022/05/29 11:10:55;;;;;;;1.97;1.60;;;18.00;28.40;;;;;;10557843;28;20241;-77
2022/05/29 11:16:11;;;;;;;1.57;1.10;;;18.20;27.60;;;;;;10555428;28;20223;-78
2022/05/29 11:21:24;;;;;;;1.73;1.20;;;18.30;27.80;;;;;;10550859;28;20222;-78
2022/05/29 11:26:43;;;;;;;1.00;1.00;;;18.50;27.50;;;;;;10544265;28;20214;-77
2022/05/29 11:31:56;;;;;;;1.33;0.90;;;18.70;27.60;;;;;;10551914;28;20227;-78
2022/05/29 11:37:23;;;;;;;2.13;1.20;;;18.80;27.10;;;;;;10554424;28;20215;-77
2022/05/29 11:42:28;;;;;;;2.63;1.40;;;19.00;26.50;;;;;;10533722;28;21068;-79
2022/05/29 11:53:23;;;;;;;2.57;1.17;;;19.20;26.30;;;;;;10476020;28;20229;-77
2022/05/29 11:58:33;;;;;;;1.30;1.20;;;19.30;26.10;;;;;;10498576;28;20863;-77
2022/05/29 12:03:45;;;;;;;1.67;1.30;;;19.30;25.30;;;;;;10536508;27;20237;-77
2022/05/29 12:08:57;;;;;;;2.50;1.20;;;19.40;25.50;;;;;;10540822;28;20238;-77
2022/05/29 12:14:06;;;;;;;1.57;1.40;;;19.50;25.00;;;;;;10540985;27;20231;-77
2022/05/29 12:19:16;;;;;;;2.40;1.23;;;19.50;25.20;;;;;;10528651;28;20220;-77
2022/05/29 12:24:24;;;;;;;1.77;1.30;;;19.60;25.60;;;;;;10513950;28;20227;-76
2022/05/29 12:29:34;;;;;;;3.17;1.40;;;19.70;25.10;;;;;;10545791;28;20234;-76
2022/05/29 12:34:48;;;;;;;1.30;1.20;;;19.90;25.30;;;;;;10546859;28;20249;-76
2022/05/29 12:40:20;;;;;;;1.27;1.00;;;20.00;25.30;;;;;;10545648;28;20702;-76
2022/05/29 12:45:51;;;;;;;1.10;1.10;;;20.00;25.30;;;;;;10521037;28;20219;-77
2022/05/29 12:51:15;;;;;;;1.10;1.00;;;19.90;24.60;;;;;;10550001;28;20707;-78
2022/05/29 12:56:44;;;;;;;1.87;1.10;;;19.90;25.00;;;;;;10515713;28;20215;-77
2022/05/29 13:02:10;;;;;;;1.10;0.97;;;19.80;25.20;;;;;;10557615;27;20227;-77
2022/05/29 13:07:22;;;;;;;1.17;1.03;;;19.60;25.00;;;;;;10518814;28;20230;-78
2022/05/29 13:12:29;;;;;;;1.03;1.03;;;19.40;25.50;;;;;;10521286;28;20495;-75
2022/05/29 13:17:34;;;;;;;1.33;1.23;;;19.10;25.60;;;;;;10507859;28;20759;-76
2022/05/29 13:22:55;;;;;;;1.60;1.20;;;18.90;25.90;;;;;;10513610;28;20871;-76
2022/05/29 13:28:00;;;;;;;1.20;1.10;;;18.70;25.80;;;;;;10549083;28;20253;-76
2022/05/29 13:33:37;;;;;;;1.33;1.10;;;18.50;25.80;;;;;;10560692;28;20241;-76
2022/05/29 13:38:57;;;;;;;1.43;1.10;;;18.30;25.70;;;;;;10554407;27;20226;-76
2022/05/29 13:44:29;;;;;;;2.50;1.40;;;18.10;25.90;;;;;;10548311;27;20760;-76
2022/05/29 13:49:33;;;;;;;1.00;1.00;;;17.80;26.10;;;;;;10547424;28;20252;-76
2022/05/29 13:54:38;;;;;;;1.47;1.20;;;17.70;26.50;;;;;;10549994;27;20219;-77
2022/05/29 14:05:21;;;;;;;1.07;1.03;;;17.40;27.00;;;;;;10527849;28;20341;-77
2022/05/29 14:10:30;;;;;;;1.60;1.50;;;17.20;27.20;;;;;;10529129;28;20230;-76
2022/05/29 14:15:44;;;;;;;1.17;1.07;;;17.00;27.80;;;;;;10506766;28;20282;-76
2022/05/29 14:20:56;;;;;;;2.63;1.30;;;16.90;28.00;;;;;;10530526;27;21491;-76
2022/05/29 14:31:57;;;;;;;1.57;1.10;;;16.70;29.10;;;;;;10538508;27;20226;-78
2022/05/29 14:37:13;;;;;;;2.23;1.13;;;16.50;29.40;;;;;;10544486;28;20246;-77
2022/05/29 14:42:22;;;;;;;1.43;0.90;;;16.20;29.00;;;;;;10541717;28;20620;-77
2022/05/29 14:47:34;;;;;;;1.70;1.17;;;16.00;29.40;;;;;;10541022;28;20227;-77
2022/05/29 14:52:46;;;;;;;1.63;1.50;;;15.60;29.80;;;;;;10545955;28;20587;-77
2022/05/29 14:57:55;;;;;;;1.10;1.10;;;15.20;30.40;;;;;;10524753;27;20590;-77
2022/05/29 15:03:01;;;;;;;1.40;1.30;;;14.80;30.50;;;;;;10541712;28;20254;-77
2022/05/29 15:13:56;;;;;;;1.20;1.10;;;14.50;30.70;;;;;;10535458;28;20463;-77
2022/05/29 15:19:13;;;;;;;1.60;1.50;;;14.30;31.50;;;;;;10535886;28;20226;-77
2022/05/29 15:24:25;;;;;;;2.00;1.10;;;14.30;31.60;;;;;;10492735;28;20295;-77
2022/05/29 15:29:32;;;;;;;2.10;2.00;;;14.30;32.00;;;;;;10504160;28;20259;-79
2022/05/29 15:34:51;;;;;;;2.20;2.00;;;14.40;32.20;;;;;;10492646;28;20579;-75
2022/05/29 15:40:00;;;;;;;1.70;1.60;;;14.30;32.90;;;;;;10487355;28;20227;-75
2022/05/29 15:45:34;;;;;;;3.70;1.30;;;14.30;32.40;;;;;;10543610;28;20226;-74
2022/05/29 15:50:52;;;;;;;1.63;1.53;;;14.20;33.20;;;;;;10547178;27;20237;-75
2022/05/29 15:56:02;;;;;;;2.10;1.90;;;14.30;33.10;;;;;;10531250;28;20239;-75
2022/05/29 16:01:09;;;;;;;2.00;1.60;;;14.30;32.40;;;;;;10536676;28;20601;-74
2022/05/29 16:06:18;;;;;;;1.40;1.30;;;14.20;32.80;;;;;;10533062;28;20253;-75
2022/05/29 16:11:34;;;;;;;4.87;2.47;;;14.10;32.90;;;;;;10546284;27;20243;-74
2022/05/29 16:16:42;;;;;;;2.60;2.30;;;14.10;33.80;;;;;;10540965;28;20222;-74
2022/05/29 16:22:13;;;;;;;1.50;1.40;;;14.00;32.80;;;;;;10525844;27;20241;-74
2022/05/29 16:27:30;;;;;;;1.40;1.13;;;13.90;34.00;;;;;;10504163;28;20219;-74
2022/05/29 16:32:40;;;;;;;2.03;0.90;;;13.90;34.60;;;;;;10543329;27;20232;-74
2022/05/29 16:48:45;;;;;;;1.27;1.17;;;13.90;34.50;;;;;;10547077;28;20690;-74
2022/05/29 16:53:52;;;;;;;1.37;1.27;;;13.90;34.20;;;;;;10553643;28;20233;-74
2022/05/29 16:58:58;;;;;;;3.37;1.17;;;13.90;33.20;;;;;;10540913;27;20215;-74
2022/05/29 17:04:20;;;;;;;1.83;1.10;;;13.80;33.70;;;;;;10509392;28;20228;-74
2022/05/29 17:09:43;;;;;;;1.10;1.10;;;13.70;34.50;;;;;;10531499;27;20229;-74
2022/05/29 17:14:54;;;;;;;1.30;1.20;;;13.60;34.70;;;;;;10549400;27;20226;-74
2022/05/29 17:20:00;;;;;;;1.40;1.20;;;13.50;35.60;;;;;;10552292;28;20570;-74
2022/05/29 17:25:10;;;;;;;1.90;1.23;;;13.60;34.80;;;;;;10532708;28;20698;-74
2022/05/29 17:30:17;;;;;;;2.20;1.70;;;13.60;35.30;;;;;;10523922;27;20223;-75
2022/05/29 17:35:25;;;;;;;2.13;1.50;;;13.60;34.80;;;;;;10516346;28;20255;-74
2022/05/29 17:40:50;;;;;;;1.57;1.47;;;13.60;35.20;;;;;;10506666;28;20246;-74
2022/05/29 17:46:00;;;;;;;1.37;1.27;;;13.60;34.90;;;;;;10518891;28;20219;-74
2022/05/29 17:51:16;;;;;;;1.30;1.20;;;13.70;35.20;;;;;;10532265;28;20315;-74
2022/05/29 17:56:19;;;;;;;1.70;1.37;;;13.70;36.10;;;;;;10546642;28;20221;-74
2022/05/29 18:01:22;;;;;;;2.03;1.83;;;13.80;34.70;;;;;;10548143;28;20230;-74
2022/05/29 18:06:27;;;;;;;2.07;1.20;;;14.00;34.70;;;;;;10544557;28;20772;-74
2022/05/29 18:11:35;;;;;;;1.53;1.20;;;14.10;35.20;;;;;;10546084;28;20230;-74
2022/05/29 18:16:38;;;;;;;1.20;1.13;;;14.10;35.30;;;;;;10545513;27;20221;-74
2022/05/29 18:21:42;;;;;;;1.00;1.00;;;14.20;34.60;;;;;;10551336;28;20226;-74
2022/05/29 18:26:45;;;;;;;1.23;1.10;;;14.20;35.10;;;;;;10546957;28;20223;-74
2022/05/29 18:31:49;;;;;;;1.40;1.30;;;14.20;34.50;;;;;;10546389;28;20223;-74
2022/05/29 18:36:53;;;;;;;1.30;1.20;;;14.20;34.70;;;;;;10548983;28;20226;-74
2022/05/29 18:42:05;;;;;;;1.40;1.30;;;14.20;35.20;;;;;;10527962;28;20225;-74
2022/05/29 18:47:08;;;;;;;1.50;1.40;;;14.20;34.70;;;;;;10545247;28;20230;-75
2022/05/29 18:52:12;;;;;;;2.40;1.10;;;14.10;34.40;;;;;;10547700;28;20235;-75
2022/05/29 18:57:17;;;;;;;1.10;1.10;;;14.00;34.90;;;;;;10539669;27;20242;-75
2022/05/29 19:02:21;;;;;;;1.33;1.23;;;14.00;34.70;;;;;;10547291;28;20275;-75
2022/05/29 19:07:25;;;;;;;1.23;1.13;;;13.80;34.80;;;;;;10545613;28;20247;-74
2022/05/29 19:12:29;;;;;;;1.03;1.03;;;13.70;35.70;;;;;;10548119;28;20237;-74
2022/05/29 19:22:59;;;;;;;0.90;0.90;;;13.50;35.20;;;;;;10506435;28;20636;-75
2022/05/29 19:28:03;;;;;;;1.77;1.10;;;13.50;35.70;;;;;;10499471;28;20219;-75
2022/05/29 19:33:07;;;;;;;1.30;1.20;;;13.40;35.50;;;;;;10501177;28;20258;-74
2022/05/29 19:38:13;;;;;;;1.10;1.10;;;13.40;35.60;;;;;;10501975;28;20220;-75
2022/05/29 19:43:16;;;;;;;1.10;1.10;;;13.50;36.50;;;;;;10496119;28;20231;-74
2022/05/29 19:48:20;;;;;;;2.40;1.20;;;13.60;35.70;;;;;;10499170;28;20220;-74
2022/05/29 19:53:24;;;;;;;2.17;1.50;;;13.60;35.80;;;;;;10501855;28;20232;-74
2022/05/29 19:58:28;;;;;;;1.70;1.60;;;13.70;36.20;;;;;;10502403;28;20223;-73
2022/05/29 20:03:31;;;;;;;1.60;1.50;;;13.70;35.60;;;;;;10503103;28;20228;-73
2022/05/29 20:08:38;;;;;;;1.73;1.50;;;13.70;35.40;;;;;;10509552;28;20223;-74
2022/05/29 20:13:41;;;;;;;1.23;1.20;;;13.70;36.20;;;;;;10509135;28;20271;-76
2022/05/29 20:18:45;;;;;;;1.23;1.13;;;13.60;35.80;;;;;;10511497;28;20227;-76
2022/05/29 20:23:55;;;;;;;1.30;1.20;;;13.70;36.10;;;;;;10513191;28;20334;-76
2022/05/29 20:28:59;;;;;;;1.20;1.10;;;13.80;36.60;;;;;;10516298;27;20314;-76
2022/05/29 20:34:03;;;;;;;1.13;1.13;;;13.80;35.80;;;;;;10557628;28;20227;-77
2022/05/29 20:39:09;;;;;;;2.20;1.40;;;13.90;35.80;;;;;;10554934;27;20884;-77
2022/05/29 20:44:15;;;;;;;1.43;1.30;;;14.00;36.20;;;;;;10561076;27;20843;-77
2022/05/29 20:49:18;;;;;;;1.10;1.10;;;14.00;35.30;;;;;;10561683;28;20262;-75
2022/05/29 20:54:24;;;;;;;1.73;1.40;;;14.00;35.10;;;;;;10562875;27;20242;-77
2022/05/29 20:59:28;;;;;;;1.07;1.07;;;13.90;35.30;;;;;;10553156;28;20227;-77
2022/05/29 21:04:34;;;;;;;2.20;1.20;;;13.80;34.80;;;;;;10523826;28;20239;-76
2022/05/29 21:09:40;;;;;;;1.00;1.00;;;13.80;35.40;;;;;;10505344;28;20227;-77
2022/05/29 21:14:43;;;;;;;1.17;1.07;;;13.70;35.10;;;;;;10505882;28;20274;-76
2022/05/29 21:19:47;;;;;;;1.60;1.50;;;13.70;34.80;;;;;;10509064;28;20231;-76
2022/05/29 21:24:51;;;;;;;1.20;1.20;;;13.60;34.50;;;;;;10512042;28;20259;-76
2022/05/29 21:29:55;;;;;;;1.40;1.30;;;13.50;34.70;;;;;;10503176;28;20220;-76
2022/05/29 21:35:00;;;;;;;1.40;1.30;;;13.50;34.80;;;;;;10508567;28;20250;-78
2022/05/29 21:40:06;;;;;;;1.20;1.20;;;13.40;35.00;;;;;;10507832;28;20220;-76
2022/05/29 21:45:15;;;;;;;1.07;1.00;;;13.40;35.40;;;;;;10500546;28;20607;-77
2022/05/29 21:50:18;;;;;;;0.90;0.90;;;13.40;35.00;;;;;;10498106;28;20230;-77
2022/05/29 21:55:26;;;;;;;1.60;1.17;;;13.40;34.90;;;;;;10502353;28;20235;-77
2022/05/29 22:00:39;;;;;;;1.37;1.30;;;13.40;35.30;;;;;;10501906;28;20804;-77
2022/05/29 22:05:42;;;;;;;1.50;1.40;;;13.40;35.40;;;;;;10514140;28;20216;-77
2022/05/29 22:10:47;;;;;;;1.07;1.07;;;13.40;34.80;;;;;;10501699;28;20219;-77
2022/05/29 22:15:51;;;;;;;0.90;0.90;;;13.40;35.60;;;;;;10505091;28;20228;-77
2022/05/29 22:20:54;;;;;;;0.90;0.90;;;13.30;34.50;;;;;;10500999;28;20710;-77
2022/05/29 22:25:59;;;;;;;1.30;1.30;;;13.30;34.50;;;;;;10502094;28;20704;-77
2022/05/29 22:31:18;;;;;;;1.10;1.10;;;13.20;34.90;;;;;;10503936;28;20719;-77
2022/05/29 22:36:33;;;;;;;0.90;0.90;;;13.10;35.50;;;;;;10496719;28;20231;-77
2022/05/29 22:41:38;;;;;;;0.87;0.87;;;13.10;35.40;;;;;;10502995;28;20224;-77
2022/05/29 22:46:54;;;;;;;1.20;1.10;;;13.00;35.00;;;;;;10503586;28;20232;-77
2022/05/29 22:52:03;;;;;;;1.20;1.10;;;12.90;35.40;;;;;;10501737;28;20227;-77
2022/05/29 22:57:10;;;;;;;1.10;1.10;;;12.90;35.10;;;;;;10502133;28;20220;-77
2022/05/29 23:02:13;;;;;;;1.80;1.70;;;12.90;35.20;;;;;;10496830;28;20217;-77
2022/05/29 23:07:19;;;;;;;1.70;1.60;;;12.80;34.90;;;;;;10493373;28;20228;-77
2022/05/29 23:12:25;;;;;;;1.60;1.50;;;12.80;35.20;;;;;;10504139;28;20231;-77
2022/05/29 23:17:29;;;;;;;1.70;1.60;;;12.80;35.30;;;;;;10496555;28;20230;-77
2022/05/29 23:22:36;;;;;;;1.87;1.77;;;12.80;35.00;;;;;;10499721;28;20243;-77
2022/05/29 23:27:41;;;;;;;1.50;1.40;;;12.80;35.70;;;;;;10498254;28;20232;-77
2022/05/29 23:32:47;;;;;;;1.70;1.60;;;12.70;35.20;;;;;;10495912;28;20239;-77
2022/05/29 23:37:53;;;;;;;0.93;0.93;;;12.70;35.40;;;;;;10499248;28;20762;-77
2022/05/29 23:43:04;;;;;;;3.00;1.50;;;12.70;35.20;;;;;;10496371;28;20236;-77
2022/05/29 23:48:20;;;;;;;12.23;2.00;;;12.70;35.50;;;;;;10495227;28;20239;-77
2022/05/29 23:53:23;;;;;;;1.83;1.73;;;12.60;36.00;;;;;;10496338;28;20242;-77
2022/05/29 23:58:27;;;;;;;2.00;1.90;;;12.60;35.00;;;;;;10496359;28;20236;-77
